createdAt,value
2018-07-24T00:01:30.668Z,18.30
2018-07-24T00:04:00.400Z,21.80
2018-07-24T00:06:29.784Z,21.77
2018-07-24T00:08:59.155Z,21.79
2018-07-24T00:11:28.516Z,21.80
2018-07-24T00:13:57.882Z,21.74
2018-07-24T00:16:27.268Z,21.72
2018-07-24T00:18:56.842Z,21.71
2018-07-24T00:21:26.228Z,21.69
2018-07-24T00:23:55.608Z,21.66
2018-07-24T00:26:25.028Z,21.65
2018-07-24T00:28:54.685Z,21.60
2018-07-24T00:31:24.613Z,21.57
2018-07-24T00:33:54.443Z,21.55
2018-07-24T00:36:24.105Z,21.57
2018-07-24T00:38:53.456Z,21.62
2018-07-24T00:41:22.835Z,21.64
2018-07-24T00:43:52.200Z,21.63
2018-07-24T00:46:21.568Z,21.62
2018-07-24T00:48:50.958Z,21.62
2018-07-24T00:51:20.319Z,21.60
2018-07-24T00:53:50.132Z,21.59
2018-07-24T00:56:19.623Z,21.55
2018-07-24T00:58:49.357Z,21.55
2018-07-24T01:01:18.854Z,21.52
2018-07-24T01:03:48.304Z,21.51
2018-07-24T01:06:17.814Z,21.45
2018-07-24T01:08:47.144Z,21.43
2018-07-24T01:11:16.541Z,21.40
2018-07-24T01:13:45.883Z,21.33
2018-07-24T01:16:15.605Z,21.34
2018-07-24T01:18:44.996Z,21.31
2018-07-24T01:21:15.404Z,21.27
2018-07-24T01:23:44.903Z,21.21
2018-07-24T01:26:14.308Z,21.20
2018-07-24T01:28:43.751Z,21.14
2018-07-24T01:31:13.183Z,21.10
2018-07-24T01:33:42.576Z,21.08
2018-07-24T01:36:11.955Z,21.07
2018-07-24T01:38:41.325Z,21.03
2018-07-24T01:41:10.762Z,21.00
2018-07-24T01:43:40.118Z,21.02
2018-07-24T01:46:09.495Z,21.03
2018-07-24T01:48:39.089Z,21.04
2018-07-24T01:51:08.428Z,21.02
2018-07-24T01:53:37.877Z,21.06
2018-07-24T01:56:07.249Z,21.07
2018-07-24T01:58:36.624Z,21.07
2018-07-24T02:01:05.975Z,21.10
2018-07-24T02:03:35.364Z,21.07
2018-07-24T02:06:05.043Z,21.08
2018-07-24T02:08:34.457Z,21.14
2018-07-24T02:11:03.836Z,21.12
2018-07-24T02:13:33.271Z,21.11
2018-07-24T02:16:03.146Z,21.16
2018-07-24T02:18:32.517Z,21.12
2018-07-24T02:21:02.232Z,21.10
2018-07-24T02:23:31.614Z,21.07
2018-07-24T02:26:01.018Z,21.08
2018-07-24T02:28:30.420Z,19.81
2018-07-24T02:30:59.814Z,20.98
2018-07-24T02:33:29.210Z,21.00
2018-07-24T02:35:58.618Z,20.90
2018-07-24T02:38:28.008Z,20.81
2018-07-24T02:40:57.397Z,20.84
2018-07-24T02:43:26.857Z,20.85
2018-07-24T02:45:57.000Z,20.84
2018-07-24T02:48:26.382Z,20.87
2018-07-24T02:50:55.753Z,20.89
2018-07-24T02:53:25.113Z,20.86
2018-07-24T02:55:54.866Z,20.81
2018-07-24T02:58:24.576Z,20.86
2018-07-24T03:00:54.089Z,20.83
2018-07-24T03:03:23.505Z,20.80
2018-07-24T03:05:52.996Z,20.84
2018-07-24T03:08:22.396Z,20.86
2018-07-24T03:10:51.816Z,20.93
2018-07-24T03:13:21.207Z,20.97
2018-07-24T03:15:50.625Z,21.01
2018-07-24T03:18:20.015Z,20.97
2018-07-24T03:20:49.421Z,21.00
2018-07-24T03:23:19.985Z,21.02
2018-07-24T03:25:49.734Z,20.97
2018-07-24T03:28:19.444Z,20.97
2018-07-24T03:30:48.875Z,20.94
2018-07-24T03:33:18.316Z,20.93
2018-07-24T03:35:47.720Z,20.96
2018-07-24T03:38:17.103Z,20.82
2018-07-24T03:40:46.969Z,20.77
2018-07-24T03:43:16.441Z,20.82
2018-07-24T03:45:45.883Z,20.80
2018-07-24T03:48:15.228Z,20.81
2018-07-24T03:50:44.625Z,20.77
2018-07-24T03:53:14.009Z,20.70
2018-07-24T03:55:43.391Z,20.65
2018-07-24T03:58:12.772Z,20.68
2018-07-24T04:00:42.766Z,20.77
2018-07-24T04:03:12.173Z,20.85
2018-07-24T04:05:41.578Z,20.96
2018-07-24T04:08:10.976Z,20.38
2018-07-24T04:10:40.398Z,21.04
2018-07-24T04:13:09.782Z,21.10
2018-07-24T04:15:39.189Z,21.15
2018-07-24T04:18:08.601Z,21.19
2018-07-24T04:20:38.012Z,21.28
2018-07-24T04:23:07.431Z,21.38
2018-07-24T04:25:36.790Z,21.47
2018-07-24T04:28:07.094Z,21.53
2018-07-24T04:30:37.108Z,21.54
2018-07-24T04:33:06.509Z,21.52
2018-07-24T04:35:36.220Z,21.46
2018-07-24T04:38:05.700Z,21.35
2018-07-24T04:40:35.335Z,21.30
2018-07-24T04:43:04.696Z,21.29
2018-07-24T04:45:34.119Z,21.36
2018-07-24T04:48:03.456Z,21.40
2018-07-24T04:50:33.125Z,21.39
2018-07-24T04:53:02.768Z,21.54
2018-07-24T04:55:32.169Z,21.58
2018-07-24T04:58:01.527Z,21.55
2018-07-24T05:00:30.887Z,21.62
2018-07-24T05:03:01.894Z,21.72
2018-07-24T05:05:31.256Z,21.84
2018-07-24T05:08:00.668Z,21.99
2018-07-24T05:10:31.099Z,22.22
2018-07-24T05:13:02.029Z,22.45
2018-07-24T05:15:31.400Z,22.56
2018-07-24T05:18:00.773Z,22.65
2018-07-24T05:20:30.152Z,22.76
2018-07-24T05:22:59.528Z,22.65
2018-07-24T05:25:28.891Z,22.64
2018-07-24T05:27:58.300Z,22.67
2018-07-24T05:30:27.690Z,22.66
2018-07-24T05:32:57.054Z,22.52
2018-07-24T05:35:27.221Z,22.51
2018-07-24T05:37:58.452Z,22.60
2018-07-24T05:40:27.865Z,22.53
2018-07-24T05:42:57.231Z,22.55
2018-07-24T05:45:26.603Z,22.45
2018-07-24T05:47:56.002Z,22.46
2018-07-24T05:50:25.392Z,22.49
2018-07-24T05:52:54.797Z,22.57
2018-07-24T05:55:24.507Z,22.65
2018-07-24T05:57:53.847Z,22.74
2018-07-24T06:00:24.409Z,22.75
2018-07-24T06:02:53.805Z,22.73
2018-07-24T06:05:23.196Z,22.78
2018-07-24T06:07:53.364Z,22.85
2018-07-24T06:10:22.766Z,22.86
2018-07-24T06:12:52.472Z,22.81
2018-07-24T06:15:21.852Z,22.91
2018-07-24T06:17:51.204Z,23.04
2018-07-24T06:20:20.790Z,23.01
2018-07-24T06:22:50.598Z,23.12
2018-07-24T06:25:20.060Z,23.15
2018-07-24T06:27:49.463Z,23.26
2018-07-24T06:30:18.829Z,23.31
2018-07-24T06:32:48.253Z,23.35
2018-07-24T06:35:17.788Z,23.39
2018-07-24T06:37:47.178Z,23.51
2018-07-24T06:40:17.230Z,23.53
2018-07-24T06:42:46.660Z,23.65
2018-07-24T06:45:16.624Z,23.66
2018-07-24T06:47:46.004Z,23.54
2018-07-24T06:50:15.361Z,23.53
2018-07-24T06:52:44.736Z,23.39
2018-07-24T06:55:14.143Z,23.37
2018-07-24T06:57:43.716Z,23.26
2018-07-24T07:00:13.436Z,23.39
2018-07-24T07:02:42.804Z,23.43
2018-07-24T07:05:12.262Z,23.56
2018-07-24T07:07:42.630Z,23.53
2018-07-24T07:10:12.328Z,23.74
2018-07-24T07:12:41.712Z,23.78
2018-07-24T07:15:12.701Z,23.80
2018-07-24T07:17:42.095Z,23.85
2018-07-24T07:20:11.958Z,23.94
2018-07-24T07:22:41.341Z,24.11
2018-07-24T07:25:11.353Z,24.05
2018-07-24T07:27:40.951Z,23.99
2018-07-24T07:30:10.377Z,23.94
2018-07-24T07:32:39.795Z,24.22
2018-07-24T07:35:09.388Z,24.29
2018-07-24T07:37:38.831Z,24.35
2018-07-24T07:40:08.574Z,24.27
2018-07-24T07:42:38.003Z,24.12
2018-07-24T07:45:07.450Z,24.12
2018-07-24T07:47:37.896Z,24.18
2018-07-24T07:50:07.376Z,23.69
2018-07-24T07:52:36.838Z,24.16
2018-07-24T07:55:06.733Z,24.30
2018-07-24T07:57:36.336Z,24.41
2018-07-24T08:00:06.464Z,24.51
2018-07-24T08:02:35.956Z,24.57
2018-07-24T08:05:05.933Z,24.85
2018-07-24T08:07:35.294Z,24.92
2018-07-24T08:10:05.198Z,24.79
2018-07-24T08:12:35.089Z,24.82
2018-07-24T08:15:04.940Z,24.76
2018-07-24T08:17:34.631Z,24.89
2018-07-24T08:20:04.303Z,24.92
2018-07-24T08:22:33.688Z,25.14
2018-07-24T08:25:03.245Z,25.32
2018-07-24T08:27:32.605Z,25.19
2018-07-24T08:30:01.996Z,25.21
2018-07-24T08:32:31.480Z,25.24
2018-07-24T08:35:00.870Z,25.26
2018-07-24T08:37:30.309Z,25.27
2018-07-24T08:39:59.679Z,25.22
2018-07-24T08:42:29.085Z,25.14
2018-07-24T08:44:58.468Z,25.40
2018-07-24T08:47:27.922Z,25.26
2018-07-24T08:49:57.301Z,25.22
2018-07-24T08:52:26.688Z,25.08
2018-07-24T08:54:56.602Z,25.20
2018-07-24T08:57:25.917Z,25.36
2018-07-24T08:59:55.294Z,25.70
2018-07-24T09:02:25.068Z,25.83
2018-07-24T09:04:54.493Z,25.95
2018-07-24T09:07:23.860Z,25.92
2018-07-24T09:09:53.235Z,26.02
2018-07-24T09:12:22.651Z,25.95
2018-07-24T09:14:52.092Z,26.04
2018-07-24T09:17:21.496Z,26.19
2018-07-24T09:19:50.939Z,25.92
2018-07-24T09:22:20.491Z,26.00
2018-07-24T09:24:50.876Z,26.11
2018-07-24T09:27:20.302Z,26.25
2018-07-24T09:29:49.694Z,26.28
2018-07-24T09:32:19.056Z,26.16
2018-07-24T09:34:48.419Z,26.21
2018-07-24T09:37:17.796Z,26.45
2018-07-24T09:39:47.570Z,26.28
2018-07-24T09:42:17.324Z,26.30
2018-07-24T09:44:46.737Z,26.18
2018-07-24T09:47:16.162Z,26.12
2018-07-24T09:49:45.758Z,26.27
2018-07-24T09:52:15.116Z,26.50
2018-07-24T09:54:44.547Z,26.58
2018-07-24T09:57:13.965Z,26.88
2018-07-24T09:59:43.384Z,26.71
2018-07-24T10:02:12.785Z,26.40
2018-07-24T10:04:42.201Z,26.55
2018-07-24T10:07:11.592Z,26.74
2018-07-24T10:09:41.001Z,26.77
2018-07-24T10:12:10.936Z,26.86
2018-07-24T10:14:40.501Z,26.84
2018-07-24T10:17:09.953Z,26.75
2018-07-24T10:19:39.345Z,26.96
2018-07-24T10:22:08.725Z,27.08
2018-07-24T10:24:38.266Z,27.14
2018-07-24T10:27:07.992Z,27.22
2018-07-24T10:29:39.020Z,27.44
2018-07-24T10:32:08.463Z,27.48
2018-07-24T10:34:37.822Z,27.46
2018-07-24T10:37:07.775Z,27.59
2018-07-24T10:39:37.140Z,27.41
2018-07-24T10:42:07.172Z,27.49
2018-07-24T10:44:36.541Z,27.45
2018-07-24T10:47:06.189Z,27.29
2018-07-24T10:49:35.569Z,27.46
2018-07-24T10:52:05.041Z,27.59
2018-07-24T10:54:35.266Z,27.72
2018-07-24T10:57:05.727Z,27.84
2018-07-24T10:59:35.485Z,27.67
2018-07-24T11:02:04.870Z,27.67
2018-07-24T11:04:34.289Z,27.77
2018-07-24T11:07:03.640Z,27.71
2018-07-24T11:09:38.517Z,27.84
2018-07-24T11:12:10.099Z,27.90
2018-07-24T11:14:39.468Z,28.15
2018-07-24T11:17:08.837Z,28.08
2018-07-24T11:19:39.795Z,28.31
2018-07-24T11:22:10.001Z,27.99
2018-07-24T11:24:42.476Z,27.81
2018-07-24T11:27:12.219Z,27.56
2018-07-24T11:29:41.591Z,27.45
2018-07-24T11:32:11.407Z,27.56
2018-07-24T11:34:40.777Z,27.38
2018-07-24T11:37:10.225Z,27.27
2018-07-24T11:39:39.620Z,27.40
2018-07-24T11:42:09.173Z,27.44
2018-07-24T11:44:38.537Z,27.68
2018-07-24T11:47:07.920Z,28.06
2018-07-24T11:49:37.268Z,28.15
2018-07-24T11:52:06.666Z,28.35
2018-07-24T11:54:36.043Z,28.34
2018-07-24T11:57:05.673Z,28.04
2018-07-24T11:59:35.051Z,27.85
2018-07-24T12:02:04.651Z,27.88
2018-07-24T12:04:34.038Z,27.80
2018-07-24T12:07:04.060Z,27.86
2018-07-24T12:09:33.401Z,27.93
2018-07-24T12:12:03.128Z,28.19
2018-07-24T12:14:32.587Z,28.39
2018-07-24T12:17:02.460Z,28.23
2018-07-24T12:19:31.812Z,28.36
2018-07-24T12:22:01.452Z,28.48
2018-07-24T12:24:30.807Z,28.45
2018-07-24T12:27:00.167Z,28.27
2018-07-24T12:29:29.715Z,28.47
2018-07-24T12:31:59.145Z,28.37
2018-07-24T12:34:28.490Z,28.65
2018-07-24T12:36:57.867Z,28.73
2018-07-24T12:39:27.243Z,28.78
2018-07-24T12:41:56.625Z,28.89
2018-07-24T12:44:26.074Z,28.61
2018-07-24T12:46:55.432Z,28.91
2018-07-24T12:49:24.842Z,28.69
2018-07-24T12:51:54.293Z,28.84
2018-07-24T12:54:23.699Z,28.92
2018-07-24T12:56:53.156Z,28.98
2018-07-24T12:59:24.485Z,29.27
2018-07-24T13:01:53.837Z,29.33
2018-07-24T13:04:23.189Z,29.35
2018-07-24T13:06:53.680Z,29.32
2018-07-24T13:09:23.183Z,29.30
2018-07-24T13:11:52.617Z,29.26
2018-07-24T13:14:22.161Z,29.15
2018-07-24T13:16:51.665Z,29.19
2018-07-24T13:19:21.135Z,29.42
2018-07-24T13:21:50.590Z,29.54
2018-07-24T13:24:19.964Z,29.58
2018-07-24T13:26:49.366Z,29.58
2018-07-24T13:29:18.753Z,29.53
2018-07-24T13:31:48.149Z,29.45
2018-07-24T13:34:18.289Z,29.60
2018-07-24T13:36:48.258Z,29.72
2018-07-24T13:39:17.610Z,28.91
2018-07-24T13:41:48.868Z,29.53
2018-07-24T13:44:18.244Z,29.51
2018-07-24T13:46:47.625Z,29.48
2018-07-24T13:49:16.975Z,29.37
2018-07-24T13:51:46.951Z,29.51
2018-07-24T13:54:16.430Z,29.58
2018-07-24T13:56:45.781Z,29.55
2018-07-24T13:59:15.132Z,29.42
2018-07-24T14:01:44.512Z,29.62
2018-07-24T14:04:13.884Z,29.32
2018-07-24T14:06:43.412Z,29.44
2018-07-24T14:09:12.940Z,29.54
2018-07-24T14:11:42.454Z,29.54
2018-07-24T14:14:11.820Z,29.65
2018-07-24T14:16:41.394Z,29.69
2018-07-24T14:19:10.767Z,29.77
2018-07-24T14:21:40.170Z,29.73
2018-07-24T14:24:09.963Z,29.85
2018-07-24T14:26:39.385Z,29.80
2018-07-24T14:29:08.878Z,29.56
2018-07-24T14:31:38.289Z,29.71
2018-07-24T14:34:07.673Z,29.78
2018-07-24T14:36:37.505Z,29.91
2018-07-24T14:39:10.460Z,29.85
2018-07-24T14:41:39.829Z,29.63
2018-07-24T14:44:09.170Z,29.68
2018-07-24T14:46:38.532Z,29.68
2018-07-24T14:49:07.889Z,29.92
2018-07-24T14:51:38.184Z,29.72
2018-07-24T14:54:07.559Z,29.71
2018-07-24T14:56:37.612Z,29.71
2018-07-24T14:59:06.964Z,29.66
2018-07-24T15:01:36.992Z,29.56
2018-07-24T15:04:06.677Z,29.63
2018-07-24T15:06:36.141Z,29.69
2018-07-24T15:09:08.486Z,29.59
2018-07-24T15:11:37.868Z,29.52
2018-07-24T15:14:07.347Z,29.52
2018-07-24T15:16:37.457Z,29.55
2018-07-24T15:19:06.908Z,29.65
2018-07-24T15:21:36.520Z,29.78
2018-07-24T15:24:06.111Z,29.98
2018-07-24T15:26:35.542Z,29.81
2018-07-24T15:29:04.928Z,29.63
2018-07-24T15:31:34.345Z,29.63
2018-07-24T15:34:03.990Z,29.59
2018-07-24T15:36:33.667Z,29.69
2018-07-24T15:39:03.152Z,29.64
2018-07-24T15:41:32.488Z,29.74
2018-07-24T15:44:01.832Z,29.73
2018-07-24T15:46:31.206Z,29.70
2018-07-24T15:49:00.597Z,29.69
2018-07-24T15:51:30.036Z,29.72
2018-07-24T15:53:59.986Z,29.66
2018-07-24T15:56:29.383Z,29.70
2018-07-24T15:58:58.910Z,29.65
2018-07-24T16:01:28.257Z,29.59
2018-07-24T16:03:57.900Z,29.65
2018-07-24T16:06:27.289Z,29.76
2018-07-24T16:08:56.812Z,29.75
2018-07-24T16:11:26.534Z,29.67
2018-07-24T16:13:55.893Z,29.67
2018-07-24T16:16:25.279Z,29.67
2018-07-24T16:18:54.796Z,29.68
2018-07-24T16:21:24.215Z,29.75
2018-07-24T16:23:53.573Z,29.73
2018-07-24T16:26:23.179Z,29.78
2018-07-24T16:28:52.781Z,29.78
2018-07-24T16:31:22.189Z,29.76
2018-07-24T16:33:51.533Z,29.71
2018-07-24T16:36:20.917Z,29.77
2018-07-24T16:38:50.350Z,29.81
2018-07-24T16:41:20.083Z,29.75
2018-07-24T16:43:49.473Z,29.77
2018-07-24T16:46:19.081Z,29.62
2018-07-24T16:48:48.495Z,29.62
2018-07-24T16:51:17.864Z,29.55
2018-07-24T16:53:47.250Z,29.46
2018-07-24T16:56:17.502Z,29.36
2018-07-24T16:58:47.028Z,29.31
2018-07-24T17:01:16.408Z,29.32
2018-07-24T17:03:45.797Z,29.31
2018-07-24T17:06:15.340Z,29.29
2018-07-24T17:08:48.441Z,29.39
2018-07-24T17:11:18.132Z,29.17
2018-07-24T17:13:47.517Z,29.23
2018-07-24T17:16:17.143Z,29.07
2018-07-24T17:18:46.793Z,29.03
2018-07-24T17:21:16.134Z,28.92
2018-07-24T17:23:45.519Z,28.81
2018-07-24T17:26:15.102Z,28.86
2018-07-24T17:28:44.623Z,28.90
2018-07-24T17:31:14.169Z,28.78
2018-07-24T17:33:43.529Z,28.75
2018-07-24T17:36:12.902Z,28.80
2018-07-24T17:38:42.368Z,28.81
2018-07-24T17:41:12.087Z,28.69
2018-07-24T17:43:41.467Z,28.74
2018-07-24T17:46:10.864Z,28.73
2018-07-24T17:48:40.241Z,28.60
2018-07-24T17:51:09.655Z,28.54
2018-07-24T17:53:39.584Z,28.50
2018-07-24T17:56:09.629Z,28.48
2018-07-24T17:58:39.076Z,28.44
2018-07-24T18:01:08.496Z,28.35
2018-07-24T18:03:38.127Z,28.26
2018-07-24T18:06:07.713Z,28.19
2018-07-24T18:08:38.072Z,28.14
2018-07-24T18:11:07.484Z,28.11
2018-07-24T18:13:36.924Z,27.97
2018-07-24T18:16:06.421Z,27.83
2018-07-24T18:18:35.799Z,27.84
2018-07-24T18:21:05.233Z,27.76
2018-07-24T18:23:35.017Z,27.71
2018-07-24T18:26:04.412Z,27.67
2018-07-24T18:28:33.760Z,27.52
2018-07-24T18:31:03.181Z,27.50
2018-07-24T18:33:32.570Z,27.40
2018-07-24T18:36:05.422Z,27.35
2018-07-24T18:38:34.906Z,27.31
2018-07-24T18:41:04.449Z,27.28
2018-07-24T18:43:34.609Z,27.21
2018-07-24T18:46:04.619Z,27.19
2018-07-24T18:48:33.986Z,27.19
2018-07-24T18:51:03.907Z,27.18
2018-07-24T18:53:33.894Z,27.14
2018-07-24T18:56:03.488Z,27.10
2018-07-24T18:58:32.850Z,27.11
2018-07-24T19:01:02.991Z,27.14
2018-07-24T19:03:32.564Z,27.15
2018-07-24T19:06:01.928Z,27.07
2018-07-24T19:08:32.741Z,27.06
2018-07-24T19:11:02.350Z,27.04
2018-07-24T19:13:31.723Z,26.97
2018-07-24T19:16:01.155Z,26.85
2018-07-24T19:18:30.506Z,26.78
2018-07-24T19:21:00.948Z,26.66
2018-07-24T19:23:31.143Z,26.65
2018-07-24T19:26:01.276Z,26.58
2018-07-24T19:28:30.783Z,26.55
2018-07-24T19:31:00.279Z,26.60
2018-07-24T19:33:30.378Z,26.53
2018-07-24T19:35:59.881Z,26.53
2018-07-24T19:38:29.322Z,26.48
2018-07-24T19:40:58.723Z,26.47
2018-07-24T19:43:28.089Z,26.38
2018-07-24T19:45:58.021Z,26.33
2018-07-24T19:48:27.406Z,26.29
2018-07-24T19:50:56.798Z,26.30
2018-07-24T19:53:26.297Z,26.34
2018-07-24T19:55:55.966Z,26.39
2018-07-24T19:58:25.613Z,26.34
2018-07-24T20:00:55.085Z,26.33
2018-07-24T20:03:24.566Z,26.40
2018-07-24T20:05:53.968Z,26.43
2018-07-24T20:08:23.972Z,26.39
2018-07-24T20:10:53.348Z,26.41
2018-07-24T20:13:23.726Z,26.42
2018-07-24T20:15:53.268Z,26.42
2018-07-24T20:18:23.797Z,26.41
2018-07-24T20:20:53.229Z,26.38
2018-07-24T20:23:23.110Z,26.41
2018-07-24T20:25:52.600Z,26.38
2018-07-24T20:28:22.435Z,26.39
2018-07-24T20:30:51.990Z,26.40
2018-07-24T20:33:21.493Z,26.29
2018-07-24T20:35:50.882Z,26.35
2018-07-24T20:38:20.689Z,26.35
2018-07-24T20:40:50.141Z,26.33
2018-07-24T20:43:19.635Z,26.34
2018-07-24T20:45:49.399Z,26.41
2018-07-24T20:48:19.004Z,26.39
2018-07-24T20:50:48.412Z,26.42
2018-07-24T20:53:17.845Z,26.39
2018-07-24T20:55:47.181Z,26.35
2018-07-24T20:58:16.557Z,26.30
2018-07-24T21:00:45.969Z,26.27
2018-07-24T21:03:15.350Z,26.22
2018-07-24T21:05:44.905Z,26.15
2018-07-24T21:08:14.301Z,26.09
2018-07-24T21:10:43.900Z,26.09
2018-07-24T21:13:13.268Z,26.06
2018-07-24T21:15:42.703Z,26.03
2018-07-24T21:18:12.097Z,26.00
2018-07-24T21:20:41.483Z,25.92
2018-07-24T21:23:11.211Z,25.88
2018-07-24T21:25:40.596Z,25.87
2018-07-24T21:28:10.033Z,25.85
2018-07-24T21:30:39.740Z,25.81
2018-07-24T21:33:09.089Z,25.83
2018-07-24T21:35:40.177Z,25.81
2018-07-24T21:38:09.568Z,25.77
2018-07-24T21:40:38.918Z,25.78
2018-07-24T21:43:08.755Z,25.77
2018-07-24T21:45:38.161Z,25.76
2018-07-24T21:48:07.572Z,25.71
2018-07-24T21:50:36.967Z,25.67
2018-07-24T21:53:06.342Z,25.60
2018-07-24T21:55:35.706Z,25.54
2018-07-24T21:58:05.087Z,25.50
2018-07-24T22:00:37.369Z,25.47
2018-07-24T22:03:08.985Z,25.49
2018-07-24T22:05:38.511Z,25.39
2018-07-24T22:08:08.529Z,25.37
2018-07-24T22:10:37.928Z,25.27
2018-07-24T22:13:07.247Z,25.21
2018-07-24T22:15:37.414Z,25.12
2018-07-24T22:18:07.009Z,25.03
2018-07-24T22:20:36.648Z,24.99
2018-07-24T22:23:06.069Z,25.00
2018-07-24T22:25:35.437Z,24.94
2018-07-24T22:28:05.192Z,24.87
2018-07-24T22:30:34.575Z,24.79
2018-07-24T22:33:03.956Z,24.60
2018-07-24T22:35:33.313Z,24.71
2018-07-24T22:38:02.708Z,24.64
2018-07-24T22:40:32.068Z,24.57
2018-07-24T22:43:01.513Z,24.52
2018-07-24T22:45:30.960Z,24.46
2018-07-24T22:48:01.236Z,24.43
2018-07-24T22:50:31.423Z,24.41
2018-07-24T22:53:00.882Z,24.30
2018-07-24T22:55:30.308Z,24.21
2018-07-24T22:57:59.784Z,24.11
2018-07-24T23:00:29.165Z,24.02
2018-07-24T23:02:58.556Z,23.95
2018-07-24T23:05:27.984Z,23.91
2018-07-24T23:07:57.388Z,23.83
2018-07-24T23:10:32.820Z,23.80
2018-07-24T23:13:04.281Z,23.68
2018-07-24T23:15:33.742Z,23.63
2018-07-24T23:18:03.315Z,23.61
2018-07-24T23:20:32.688Z,23.58
2018-07-24T23:23:02.081Z,23.53
2018-07-24T23:25:31.462Z,23.50
2018-07-24T23:28:00.876Z,23.50
2018-07-24T23:30:30.216Z,23.44
2018-07-24T23:32:59.897Z,23.38
2018-07-24T23:35:29.407Z,23.37
2018-07-24T23:37:58.798Z,23.31
2018-07-24T23:40:28.225Z,23.27
2018-07-24T23:42:57.702Z,23.24
2018-07-24T23:45:27.266Z,23.21
2018-07-24T23:47:56.628Z,23.19
2018-07-24T23:50:26.057Z,23.15
2018-07-24T23:52:55.574Z,23.19
2018-07-24T23:55:25.919Z,23.19
2018-07-24T23:57:55.264Z,23.20
